Pituffik, Greenland

10:55 PM AST on March 04, 2015 (GMT -0400)
Thule Air Base | Change Station
CLOSE
Current Station
Airport
Location: Pituffik,
Elevation: 253 ft
Nearby Weather Stations

Elev 253 ft 76.53 °N, 68.75 °W | Updated 57 minutes ago

Clear
Clear
-30 °F
Feels Like -54 °F
N
12
Wind Variable Wind from East

Today
High -- | Low -- °F
--% Chance of Precip.
Yesterday
High -- | Low -- °F
Precip. -- in
8:23 AM 5:12 PM
Full, 100% visible
Pressure 29.10 in
Visibility 6.2 miles
Clouds Clear
Windchill -54 °F
Dew Point -30 °F
Humidity 97%
Rainfall 0.00 in
Snow Depth Not available.
UV 0 out of 12
Pollen Not available.
Air Quality Not available.
Flu Activity Not available.
METAR BGTL 050158Z AUTO 09010KT 9999 CLR M34/M34 A2911 RMK AO2 SLP853 T13421345 $

More Conditions Fewer Conditions

Pressure 29.10 in
Visibility 6.2 miles
Clouds Clear
Windchill -54 °F
Dew Point -30 °F
Humidity 97%
Rainfall 0.00 in
Snow Depth Not available.
UV 0 out of 12
Pollen Not available.
Air Quality Not available.
Flu Activity Not available.
METAR BGTL 050158Z AUTO 09010KT 9999 CLR M34/M34 A2911 RMK AO2 SLP853 T13421345 $

More Conditions Fewer Conditions

10-Day Weather Forecast

Almanac

Astronomy

Mar. 04, 2015 Rise Set
Actual Time
Civil Twilight
Nautical Twilight
Astronomical Twilight
Moon
Length of Visible Light
Length of Day
Tomorrow will be .
, % of the Moon is Illuminated

Today's Extremes

Country Highs Country Lows

Community

WunderPhotos

Upload Photos

1,802,634 photos uploaded!

WunderBlogs® & News

Nearby

Air Quality

  Air Quality AQ Index Pollutant
Not available.

Snow Depth

Station Depth Elevation

Earthquake Activity

City Distance Mag. Time & Date
Minimum magnitude displayed is 2.5.

Coastal Water Temperatures

Place Temperature

Nearby Weather Stations